createdAt,value
2023-04-20T00:00:43.020Z,36.23
2023-04-20T00:03:09.622Z,36.55
2023-04-20T00:05:37.505Z,36.38
2023-04-20T00:08:04.148Z,36.63
2023-04-20T00:10:30.694Z,36.79
2023-04-20T00:12:57.095Z,37.08
2023-04-20T00:15:23.516Z,36.80
2023-04-20T00:17:49.940Z,36.79
2023-04-20T00:20:16.545Z,37.06
2023-04-20T00:22:42.976Z,37.24
2023-04-20T00:25:09.728Z,37.39
2023-04-20T00:27:36.172Z,37.54
2023-04-20T00:30:02.662Z,37.28
2023-04-20T00:32:30.307Z,37.75
2023-04-20T00:34:56.789Z,37.38
2023-04-20T00:37:25.521Z,37.47
2023-04-20T00:39:55.625Z,37.30
2023-04-20T00:42:22.209Z,38.09
2023-04-20T00:44:48.590Z,38.47
2023-04-20T00:47:15.016Z,38.99
2023-04-20T00:49:41.732Z,39.10
2023-04-20T00:52:08.791Z,39.01
2023-04-20T00:54:36.234Z,39.12
2023-04-20T00:57:04.570Z,38.50
2023-04-20T00:59:31.153Z,39.01
2023-04-20T01:01:58.534Z,39.11
2023-04-20T01:04:26.315Z,38.57
2023-04-20T01:06:52.810Z,38.95
2023-04-20T01:09:21.248Z,38.62
2023-04-20T01:11:47.821Z,38.42
2023-04-20T01:14:16.171Z,38.50
2023-04-20T01:16:42.576Z,38.95
2023-04-20T01:19:11.829Z,39.33
2023-04-20T01:21:38.361Z,39.80
2023-04-20T01:24:05.512Z,40.01
2023-04-20T01:26:32.334Z,40.15
2023-04-20T01:28:59.022Z,39.81
2023-04-20T01:31:25.584Z,40.15
2023-04-20T01:33:52.120Z,40.11
2023-04-20T01:36:20.625Z,39.97
2023-04-20T01:38:47.502Z,40.58
2023-04-20T01:41:14.082Z,40.74
2023-04-20T01:43:40.928Z,40.71
2023-04-20T01:46:07.511Z,40.26
2023-04-20T01:48:34.564Z,40.05
2023-04-20T01:51:01.128Z,40.54
2023-04-20T01:53:27.838Z,40.69
2023-04-20T01:55:54.274Z,40.70
2023-04-20T01:58:22.652Z,41.13
2023-04-20T02:00:49.256Z,41.10
2023-04-20T02:03:16.403Z,40.89
2023-04-20T02:05:43.187Z,41.48
2023-04-20T02:08:09.619Z,41.21
2023-04-20T02:10:39.083Z,41.78
2023-04-20T02:13:05.500Z,41.54
2023-04-20T02:15:32.386Z,42.38
2023-04-20T02:17:58.860Z,44.03
2023-04-20T02:20:25.487Z,43.27
2023-04-20T02:22:51.899Z,42.71
2023-04-20T02:25:18.414Z,42.67
2023-04-20T02:27:44.978Z,42.89
2023-04-20T02:30:12.365Z,42.32
2023-04-20T02:32:39.192Z,42.52
2023-04-20T02:35:06.044Z,42.63
2023-04-20T02:37:32.613Z,42.10
2023-04-20T02:39:59.150Z,42.65
2023-04-20T02:42:26.953Z,43.41
2023-04-20T02:44:55.699Z,43.04
2023-04-20T02:47:22.648Z,43.50
2023-04-20T02:49:50.703Z,44.16
2023-04-20T02:52:17.959Z,44.21
2023-04-20T02:54:44.814Z,43.52
2023-04-20T02:57:12.587Z,43.69
2023-04-20T02:59:39.222Z,44.42
2023-04-20T03:02:31.790Z,44.14
2023-04-20T03:04:58.452Z,43.97
2023-04-20T03:07:24.904Z,44.78
2023-04-20T03:09:52.446Z,44.69
2023-04-20T03:12:23.509Z,44.65
2023-04-20T03:15:01.382Z,46.11
2023-04-20T03:17:39.933Z,46.63
2023-04-20T03:20:07.531Z,46.15
2023-04-20T03:22:34.016Z,46.22
2023-04-20T03:25:01.822Z,46.43
2023-04-20T03:27:46.766Z,46.62
2023-04-20T03:30:14.800Z,46.52
2023-04-20T03:32:42.544Z,47.49
2023-04-20T03:35:09.621Z,47.45
2023-04-20T03:37:37.560Z,47.55
2023-04-20T03:40:07.163Z,47.71
2023-04-20T03:42:33.636Z,48.37
2023-04-20T03:45:00.154Z,48.22
2023-04-20T03:47:26.670Z,48.61
2023-04-20T03:49:53.100Z,48.80
2023-04-20T03:52:19.545Z,49.73
2023-04-20T03:54:46.254Z,49.91
2023-04-20T03:57:15.401Z,50.04
2023-04-20T03:59:42.714Z,50.99
2023-04-20T04:02:13.300Z,50.66
2023-04-20T04:04:42.148Z,50.95
2023-04-20T04:07:08.904Z,51.53
2023-04-20T04:09:39.793Z,51.57
2023-04-20T04:12:07.567Z,52.77
2023-04-20T04:14:35.124Z,53.26
2023-04-20T04:17:02.019Z,52.74
2023-04-20T04:19:31.914Z,53.07
2023-04-20T04:21:59.632Z,53.54
2023-04-20T04:24:26.691Z,54.00
2023-04-20T04:27:05.112Z,53.79
2023-04-20T04:29:35.875Z,54.04
2023-04-20T04:32:05.534Z,54.98
2023-04-20T04:34:33.687Z,55.18
2023-04-20T04:37:01.819Z,55.04
2023-04-20T04:39:41.176Z,55.65
2023-04-20T04:42:14.737Z,56.05
2023-04-20T04:44:43.487Z,56.83
2023-04-20T04:47:14.154Z,56.47
2023-04-20T04:49:41.113Z,56.73
2023-04-20T04:52:08.574Z,57.62
2023-04-20T04:54:35.534Z,57.96
2023-04-20T04:57:02.806Z,58.63
2023-04-20T04:59:29.211Z,59.27
2023-04-20T05:01:55.838Z,59.97
2023-04-20T05:04:22.553Z,60.57
2023-04-20T05:06:49.053Z,60.83
2023-04-20T05:09:16.254Z,61.47
2023-04-20T05:11:43.228Z,62.38
2023-04-20T05:14:09.709Z,63.25
2023-04-20T05:16:36.267Z,64.08
2023-04-20T05:19:02.656Z,65.72
2023-04-20T05:21:29.038Z,66.35
2023-04-20T05:23:55.493Z,67.46
2023-04-20T05:26:21.942Z,67.91
2023-04-20T05:28:48.321Z,68.34
2023-04-20T05:31:14.869Z,69.07
2023-04-20T05:33:41.256Z,69.64
2023-04-20T05:36:10.839Z,69.85
2023-04-20T05:38:37.784Z,69.71
2023-04-20T05:41:04.838Z,69.73
2023-04-20T05:43:31.577Z,69.51
2023-04-20T05:45:58.425Z,69.75
2023-04-20T05:48:29.590Z,70.93
2023-04-20T05:50:56.616Z,70.73
2023-04-20T05:53:23.090Z,70.62
2023-04-20T05:55:49.589Z,70.79
2023-04-20T05:58:16.960Z,70.88
2023-04-20T06:00:44.292Z,71.70
2023-04-20T06:03:10.893Z,71.80
2023-04-20T06:05:37.930Z,71.36
2023-04-20T06:08:04.621Z,71.49
2023-04-20T06:10:32.472Z,71.54
2023-04-20T06:12:58.971Z,71.23
2023-04-20T06:15:25.524Z,71.00
2023-04-20T06:17:52.413Z,70.79
2023-04-20T06:20:20.249Z,70.68
2023-04-20T06:22:47.014Z,70.27
2023-04-20T06:25:13.864Z,70.18
2023-04-20T06:27:40.709Z,70.78
2023-04-20T06:30:07.710Z,71.04
2023-04-20T06:32:34.136Z,72.15
2023-04-20T06:35:00.613Z,71.11
2023-04-20T06:37:27.794Z,71.02
2023-04-20T06:39:57.366Z,70.93
2023-04-20T06:42:23.778Z,70.83
2023-04-20T06:44:50.704Z,71.02
2023-04-20T06:47:17.093Z,70.95
2023-04-20T06:49:43.468Z,70.52
2023-04-20T06:52:10.085Z,70.88
2023-04-20T06:54:36.531Z,70.83
2023-04-20T06:57:04.423Z,71.24
2023-04-20T06:59:30.816Z,71.52
2023-04-20T07:01:57.261Z,71.36
2023-04-20T07:04:23.765Z,71.10
2023-04-20T07:06:53.393Z,70.66
2023-04-20T07:09:22.840Z,70.46
2023-04-20T07:11:49.268Z,70.47
2023-04-20T07:14:15.853Z,71.15
2023-04-20T07:16:42.474Z,71.50
2023-04-20T07:19:08.987Z,72.81
2023-04-20T07:21:36.029Z,72.72
2023-04-20T07:24:02.567Z,73.40
2023-04-20T07:26:29.009Z,74.00
2023-04-20T07:28:55.458Z,74.11
2023-04-20T07:31:22.171Z,74.05
2023-04-20T07:33:49.328Z,74.05
2023-04-20T07:36:15.977Z,74.64
2023-04-20T07:38:42.362Z,74.60
2023-04-20T07:41:10.738Z,74.57
2023-04-20T07:43:38.852Z,74.40
2023-04-20T07:46:05.619Z,75.10
2023-04-20T07:48:33.855Z,74.42
2023-04-20T07:51:00.517Z,74.23
2023-04-20T07:53:27.837Z,74.09
2023-04-20T07:55:54.220Z,74.06
2023-04-20T07:58:21.571Z,73.74
2023-04-20T08:00:48.375Z,74.36
2023-04-20T08:03:15.585Z,73.96
2023-04-20T08:05:42.354Z,73.99
2023-04-20T08:08:08.869Z,73.74
2023-04-20T08:10:35.810Z,73.55
2023-04-20T08:13:02.269Z,73.50
2023-04-20T08:15:29.195Z,73.15
2023-04-20T08:17:56.413Z,72.37
2023-04-20T08:20:22.955Z,73.33
2023-04-20T08:22:50.545Z,72.39
2023-04-20T08:25:17.058Z,71.57
2023-04-20T08:27:43.445Z,71.06
2023-04-20T08:30:10.448Z,71.30
2023-04-20T08:32:36.957Z,71.36
2023-04-20T08:35:04.931Z,69.99
2023-04-20T08:37:32.937Z,69.88
2023-04-20T08:39:59.759Z,70.48
2023-04-20T08:42:26.181Z,69.75
2023-04-20T08:44:52.833Z,69.35
2023-04-20T08:47:21.401Z,68.95
2023-04-20T08:49:51.812Z,68.49
2023-04-20T08:52:18.286Z,68.03
2023-04-20T08:57:14.431Z,67.08
2023-04-20T08:59:40.881Z,67.10
2023-04-20T09:02:11.893Z,67.79
2023-04-20T09:04:39.548Z,67.96
2023-04-20T09:07:07.504Z,68.85
2023-04-20T09:09:33.966Z,68.56
2023-04-20T09:12:10.240Z,67.03
2023-04-20T09:14:44.063Z,66.56
2023-04-20T09:17:14.116Z,66.12
2023-04-20T09:19:43.276Z,66.21
2023-04-20T09:22:09.719Z,66.03
2023-04-20T09:24:38.420Z,66.39
2023-04-20T09:27:18.218Z,66.43
2023-04-20T09:29:57.918Z,66.95
2023-04-20T09:32:25.589Z,66.06
2023-04-20T09:34:52.056Z,67.45
2023-04-20T09:37:18.647Z,66.15
2023-04-20T09:39:46.248Z,66.42
2023-04-20T09:42:14.286Z,66.69
2023-04-20T09:44:41.070Z,67.18
2023-04-20T09:47:09.547Z,68.85
2023-04-20T09:49:41.646Z,70.25
2023-04-20T09:52:08.375Z,72.44
2023-04-20T09:54:37.185Z,77.86
2023-04-20T09:57:04.620Z,81.32
2023-04-20T09:59:33.360Z,84.70
2023-04-20T10:01:59.915Z,85.92
2023-04-20T10:04:26.839Z,86.87
2023-04-20T10:06:55.316Z,87.51
2023-04-20T10:09:24.654Z,88.99
2023-04-20T10:11:54.024Z,89.33
2023-04-20T10:14:26.005Z,88.57
2023-04-20T10:17:01.050Z,86.58
2023-04-20T10:19:44.608Z,85.92
2023-04-20T10:22:14.222Z,86.12
2023-04-20T10:24:40.719Z,86.27
2023-04-20T10:27:21.688Z,89.38
2023-04-20T10:29:48.428Z,86.65
2023-04-20T10:32:24.590Z,84.62
2023-04-20T10:35:10.098Z,85.62
2023-04-20T10:37:47.648Z,85.70
2023-04-20T10:40:14.101Z,85.47
2023-04-20T10:42:42.477Z,83.50
2023-04-20T10:45:10.707Z,78.03
2023-04-20T10:47:45.023Z,76.15
2023-04-20T10:50:14.215Z,77.54
2023-04-20T10:52:42.647Z,76.03
2023-04-20T10:55:23.540Z,74.22
2023-04-20T10:57:51.050Z,71.20
2023-04-20T11:00:20.254Z,67.76
2023-04-20T11:02:51.655Z,65.92
2023-04-20T11:05:19.288Z,68.39
2023-04-20T11:07:57.054Z,64.70
2023-04-20T11:10:42.629Z,64.69
2023-04-20T11:13:23.271Z,64.37
2023-04-20T11:15:49.704Z,65.18
2023-04-20T11:18:16.483Z,65.06
2023-04-20T11:20:56.180Z,63.00
2023-04-20T11:23:24.556Z,61.44
2023-04-20T11:25:55.590Z,57.62
2023-04-20T11:28:22.124Z,55.60
2023-04-20T11:30:50.684Z,54.10
2023-04-20T11:33:30.042Z,53.53
2023-04-20T11:35:58.335Z,49.64
2023-04-20T11:38:28.639Z,45.31
2023-04-20T11:40:55.803Z,43.19
2023-04-20T11:43:22.222Z,43.48
2023-04-20T11:45:49.174Z,43.14
2023-04-20T11:48:16.040Z,41.63
2023-04-20T11:50:43.176Z,41.76
2023-04-20T11:53:14.528Z,42.78
2023-04-20T11:55:41.776Z,43.14
2023-04-20T11:58:08.609Z,43.88
2023-04-20T12:00:35.135Z,44.07
2023-04-20T12:03:02.322Z,43.06
2023-04-20T12:05:29.343Z,42.65
2023-04-20T12:07:56.205Z,43.63
2023-04-20T12:10:22.965Z,42.89
2023-04-20T12:12:49.435Z,43.62
2023-04-20T12:15:15.836Z,42.23
2023-04-20T12:17:42.253Z,40.89
2023-04-20T12:21:46.574Z,40.18
2023-04-20T12:24:13.221Z,39.17
2023-04-20T12:26:39.675Z,37.83
2023-04-20T12:29:07.103Z,36.24
2023-04-20T12:31:34.093Z,36.70
2023-04-20T12:34:00.564Z,36.33
2023-04-20T12:36:27.938Z,35.34
2023-04-20T12:38:55.850Z,34.96
2023-04-20T12:41:23.334Z,34.73
2023-04-20T12:43:52.932Z,33.45
2023-04-20T12:46:19.538Z,33.53
2023-04-20T12:48:46.108Z,33.27
2023-04-20T12:51:13.454Z,33.28
2023-04-20T12:53:40.115Z,32.55
2023-04-20T12:56:06.948Z,31.72
2023-04-20T12:58:33.372Z,31.27
2023-04-20T13:00:59.822Z,31.16
2023-04-20T13:07:18.666Z,30.86
2023-04-20T13:09:45.513Z,31.90
2023-04-20T13:12:12.782Z,31.98
2023-04-20T13:14:39.237Z,32.14
2023-04-20T13:17:06.822Z,31.75
2023-04-20T13:19:33.294Z,32.14
2023-04-20T13:21:59.669Z,31.38
2023-04-20T13:24:26.172Z,31.62
2023-04-20T13:26:56.579Z,31.78
2023-04-20T13:29:24.578Z,32.02
2023-04-20T13:31:51.110Z,31.98
2023-04-20T13:34:18.486Z,32.32
2023-04-20T13:36:45.709Z,32.76
2023-04-20T13:39:12.539Z,33.05
2023-04-20T13:41:38.972Z,33.24
2023-04-20T13:44:07.702Z,33.69
2023-04-20T13:46:34.275Z,33.95
2023-04-20T13:49:00.812Z,34.20
2023-04-20T13:51:28.031Z,34.55
2023-04-20T13:53:54.475Z,34.76
2023-04-20T13:56:20.925Z,36.08
2023-04-20T13:58:47.432Z,36.73
2023-04-20T14:01:17.392Z,37.71
2023-04-20T14:03:44.154Z,38.08
2023-04-20T14:06:10.741Z,37.73
2023-04-20T14:08:37.165Z,38.67
2023-04-20T14:11:03.550Z,39.17
2023-04-20T14:13:30.330Z,38.93
2023-04-20T14:15:57.061Z,39.67
2023-04-20T14:18:23.753Z,38.47
2023-04-20T14:20:52.273Z,37.62
2023-04-20T14:23:19.220Z,37.00
2023-04-20T14:25:45.955Z,36.08
2023-04-20T14:28:16.668Z,35.49
2023-04-20T14:30:44.774Z,34.65
2023-04-20T14:33:11.408Z,33.78
2023-04-20T14:35:38.187Z,32.95
2023-04-20T14:38:05.120Z,33.17
2023-04-20T14:40:32.000Z,32.72
2023-04-20T14:42:58.362Z,32.95
2023-04-20T14:45:24.829Z,32.50
2023-04-20T14:47:55.485Z,31.50
2023-04-20T14:50:24.038Z,31.20
2023-04-20T14:52:52.312Z,30.99
2023-04-20T14:55:23.833Z,30.48
2023-04-20T14:57:57.365Z,29.93
2023-04-20T15:00:25.552Z,29.68
2023-04-20T15:02:53.425Z,29.84
2023-04-20T15:05:20.229Z,29.75
2023-04-20T15:07:50.470Z,29.70
2023-04-20T15:10:18.613Z,29.61
2023-04-20T15:12:45.911Z,29.58
2023-04-20T15:15:12.327Z,29.59
2023-04-20T15:17:38.938Z,29.48
2023-04-20T15:20:07.501Z,29.52
2023-04-20T15:22:34.038Z,29.89
2023-04-20T15:25:00.542Z,30.24
2023-04-20T15:27:26.900Z,30.20
2023-04-20T15:29:53.296Z,29.97
2023-04-20T15:32:19.691Z,29.79
2023-04-20T15:34:46.230Z,30.08
2023-04-20T15:37:12.694Z,30.49
2023-04-20T15:39:39.131Z,30.60
2023-04-20T15:42:05.640Z,30.79
2023-04-20T15:44:32.290Z,30.38
2023-04-20T15:46:58.867Z,30.61
2023-04-20T15:49:25.381Z,30.59
2023-04-20T15:51:51.771Z,30.58
2023-04-20T15:54:23.425Z,30.79
2023-04-20T15:56:50.972Z,30.90
2023-04-20T15:59:18.560Z,30.83
2023-04-20T16:01:45.163Z,30.46
2023-04-20T16:04:13.470Z,30.33
2023-04-20T16:06:40.953Z,30.56
2023-04-20T16:09:07.501Z,30.62
2023-04-20T16:11:34.814Z,30.30
2023-04-20T16:14:01.357Z,30.77
2023-04-20T16:16:27.841Z,31.20
2023-04-20T16:18:55.106Z,31.15
2023-04-20T16:21:24.646Z,31.41
2023-04-20T16:23:53.208Z,31.41
2023-04-20T16:26:20.845Z,31.23
2023-04-20T16:28:47.420Z,31.41
2023-04-20T16:31:14.065Z,31.91
2023-04-20T16:33:40.955Z,31.95
2023-04-20T16:36:07.646Z,31.90
2023-04-20T16:38:34.066Z,31.60
2023-04-20T16:41:00.535Z,31.88
2023-04-20T16:43:27.124Z,35.56
2023-04-20T16:45:54.114Z,39.82
2023-04-20T16:48:20.989Z,34.15
2023-04-20T16:50:47.443Z,33.40
2023-04-20T16:53:13.932Z,33.94
2023-04-20T16:55:40.385Z,34.01
2023-04-20T16:58:06.853Z,34.44
2023-04-20T17:00:34.064Z,34.61
2023-04-20T17:03:01.254Z,35.64
2023-04-20T17:05:27.954Z,35.56
2023-04-20T17:07:54.476Z,36.54
2023-04-20T17:10:21.300Z,37.16
2023-04-20T17:12:47.749Z,38.15
2023-04-20T17:15:14.513Z,38.99
2023-04-20T17:17:41.097Z,39.30
2023-04-20T17:20:08.485Z,39.72
2023-04-20T17:22:35.460Z,40.25
2023-04-20T17:25:02.006Z,39.84
2023-04-20T17:27:28.382Z,40.14
2023-04-20T17:29:56.031Z,40.12
2023-04-20T17:32:22.734Z,39.89
2023-04-20T17:34:51.279Z,40.72
2023-04-20T17:37:18.042Z,39.27
2023-04-20T17:39:44.617Z,39.42
2023-04-20T17:42:12.640Z,39.10
2023-04-20T17:44:39.470Z,39.77
2023-04-20T17:47:06.716Z,40.31
2023-04-20T17:49:34.900Z,40.66
2023-04-20T17:52:01.496Z,40.60
2023-04-20T17:54:28.673Z,40.99
2023-04-20T17:56:56.040Z,41.26
2023-04-20T17:59:23.772Z,41.64
2023-04-20T18:01:50.488Z,42.76
2023-04-20T18:04:17.288Z,43.21
2023-04-20T18:06:44.277Z,43.58
2023-04-20T18:09:12.766Z,43.80
2023-04-20T18:11:39.177Z,45.74
2023-04-20T18:14:05.635Z,44.68
2023-04-20T18:16:32.135Z,44.80
2023-04-20T18:18:58.549Z,45.84
2023-04-20T18:21:25.472Z,45.79
2023-04-20T18:23:51.951Z,46.63
2023-04-20T18:26:20.250Z,47.63
2023-04-20T18:28:47.244Z,48.46
2023-04-20T18:31:13.790Z,49.28
2023-04-20T18:33:40.221Z,49.47
2023-04-20T18:36:06.884Z,50.59
2023-04-20T18:38:35.044Z,50.73
2023-04-20T18:41:02.006Z,51.68
2023-04-20T18:43:28.387Z,52.66
2023-04-20T18:45:55.132Z,54.43
2023-04-20T18:48:21.486Z,55.56
2023-04-20T18:50:48.206Z,57.40
2023-04-20T18:53:14.805Z,58.53
2023-04-20T18:55:41.590Z,59.77
2023-04-20T18:58:08.099Z,60.57
2023-04-20T19:00:34.589Z,60.83
2023-04-20T19:03:01.085Z,61.75
2023-04-20T19:05:27.665Z,62.28
2023-04-20T19:07:54.294Z,63.37
2023-04-20T19:10:20.776Z,63.01
2023-04-20T19:12:47.394Z,63.68
2023-04-20T19:15:13.999Z,63.93
2023-04-20T19:17:41.757Z,64.43
2023-04-20T19:20:08.793Z,65.08
2023-04-20T19:22:35.362Z,64.05
2023-04-20T19:25:02.252Z,64.02
2023-04-20T19:27:28.682Z,65.00
2023-04-20T19:29:55.164Z,65.21
2023-04-20T19:32:21.617Z,65.72
2023-04-20T19:34:48.122Z,65.24
2023-04-20T19:37:14.836Z,65.19
2023-04-20T19:39:41.271Z,65.50
2023-04-20T19:42:07.750Z,65.59
2023-04-20T19:44:35.994Z,64.96
2023-04-20T19:47:03.117Z,64.85
2023-04-20T19:49:29.618Z,65.96
2023-04-20T19:51:56.588Z,66.22
2023-04-20T19:54:23.047Z,66.06
2023-04-20T19:56:49.466Z,65.84
2023-04-20T19:59:16.589Z,66.23
2023-04-20T20:01:43.237Z,67.08
2023-04-20T20:04:10.001Z,67.33
2023-04-20T20:06:36.801Z,67.29
2023-04-20T20:09:05.480Z,67.86
2023-04-20T20:11:33.172Z,67.29
2023-04-20T20:13:59.848Z,67.06
2023-04-20T20:16:29.076Z,66.98
2023-04-20T20:18:55.571Z,67.28
2023-04-20T20:21:22.146Z,67.86
2023-04-20T20:23:48.972Z,68.39
2023-04-20T20:26:15.364Z,68.42
2023-04-20T20:28:41.795Z,68.58
2023-04-20T20:31:08.272Z,68.96
2023-04-20T20:33:34.756Z,69.34
2023-04-20T20:36:02.655Z,69.93
2023-04-20T20:38:30.844Z,69.89
2023-04-20T20:40:58.573Z,70.61
2023-04-20T20:43:25.269Z,70.42
2023-04-20T20:45:52.260Z,70.84
2023-04-20T20:48:18.647Z,72.18
2023-04-20T20:50:45.256Z,72.88
2023-04-20T20:53:12.101Z,74.03
2023-04-20T20:55:38.706Z,76.12
2023-04-20T20:58:05.080Z,77.27
2023-04-20T21:00:33.209Z,79.14
2023-04-20T21:02:59.865Z,78.68
2023-04-20T21:05:26.409Z,79.71
2023-04-20T21:07:53.042Z,80.90
2023-04-20T21:10:19.881Z,81.93
2023-04-20T21:12:46.258Z,83.20
2023-04-20T21:15:12.819Z,84.61
2023-04-20T21:17:39.503Z,87.58
2023-04-20T21:20:09.024Z,88.74
2023-04-20T21:22:35.432Z,88.86
2023-04-20T21:25:01.865Z,89.97
2023-04-20T21:27:28.353Z,92.06
2023-04-20T21:29:55.031Z,91.77
2023-04-20T21:32:21.599Z,93.21
2023-04-20T21:34:48.101Z,93.81
2023-04-20T21:37:14.703Z,94.90
2023-04-20T21:39:41.073Z,96.23
2023-04-20T21:42:07.667Z,96.15
2023-04-20T21:44:34.380Z,96.03
2023-04-20T21:47:02.424Z,96.33
2023-04-20T21:49:29.531Z,97.24
2023-04-20T21:51:55.998Z,98.00
2023-04-20T21:54:22.395Z,98.71
2023-04-20T21:56:48.832Z,99.51
2023-04-20T21:59:15.294Z,100.00
2023-04-20T22:01:41.766Z,100.00
2023-04-20T22:04:10.380Z,100.00
2023-04-20T22:06:37.136Z,100.00
2023-04-20T22:09:04.692Z,100.00
2023-04-20T22:11:31.168Z,100.00
2023-04-20T22:13:57.598Z,100.00
2023-04-20T22:16:24.249Z,100.00
2023-04-20T22:18:50.956Z,100.00
2023-04-20T22:21:17.468Z,100.00
2023-04-20T22:23:43.893Z,100.00
2023-04-20T22:26:10.341Z,100.00
2023-04-20T22:28:36.784Z,100.00
2023-04-20T22:31:03.437Z,100.00
2023-04-20T22:33:30.065Z,100.00
2023-04-20T22:35:56.422Z,100.00
2023-04-20T22:38:23.277Z,100.00
2023-04-20T22:40:49.646Z,100.00
2023-04-20T22:43:16.148Z,100.00
2023-04-20T22:45:42.617Z,100.00
2023-04-20T22:48:09.266Z,100.00
2023-04-20T22:50:35.772Z,100.00
2023-04-20T22:53:02.858Z,100.00
2023-04-20T22:55:29.287Z,100.00
2023-04-20T22:57:55.758Z,100.00
2023-04-20T23:00:22.185Z,100.00
2023-04-20T23:02:49.274Z,100.00
2023-04-20T23:05:20.034Z,100.00
2023-04-20T23:07:46.571Z,100.00
2023-04-20T23:10:16.074Z,100.00
2023-04-20T23:12:44.446Z,100.00
2023-04-20T23:15:11.861Z,100.00
2023-04-20T23:17:38.554Z,100.00
2023-04-20T23:20:10.165Z,100.00
2023-04-20T23:22:37.091Z,100.00
2023-04-20T23:25:04.084Z,100.00
2023-04-20T23:27:30.531Z,100.00
2023-04-20T23:29:56.914Z,100.00
2023-04-20T23:32:23.577Z,100.00
2023-04-20T23:34:49.996Z,100.00
2023-04-20T23:37:16.342Z,100.00
2023-04-20T23:39:42.716Z,100.00
2023-04-20T23:42:09.552Z,100.00
2023-04-20T23:44:36.593Z,100.00
2023-04-20T23:47:03.055Z,100.00
2023-04-20T23:49:29.485Z,100.00
2023-04-20T23:51:55.918Z,100.00
2023-04-20T23:54:22.316Z,100.00
2023-04-20T23:56:48.746Z,100.00
2023-04-20T23:59:15.133Z,100.00
